createdAt,value
2022-10-17T00:00:21.923Z,64.34
2022-10-17T00:01:21.908Z,64.44
2022-10-17T00:02:21.860Z,64.44
2022-10-17T00:03:22.065Z,64.44
2022-10-17T00:04:21.872Z,64.44
2022-10-17T00:05:21.870Z,64.44
2022-10-17T00:06:21.821Z,64.44
2022-10-17T00:07:21.792Z,64.44
2022-10-17T00:08:21.780Z,64.44
2022-10-17T00:09:22.671Z,64.34
2022-10-17T00:10:23.212Z,64.44
2022-10-17T00:11:21.765Z,64.34
2022-10-17T00:12:21.729Z,64.34
2022-10-17T00:13:21.729Z,64.34
2022-10-17T00:14:21.699Z,64.34
2022-10-17T00:15:21.828Z,64.44
2022-10-17T00:16:21.672Z,64.34
2022-10-17T00:17:21.836Z,64.34
2022-10-17T00:18:21.700Z,64.44
2022-10-17T00:19:21.628Z,64.34
2022-10-17T00:20:21.632Z,64.34
2022-10-17T00:21:21.806Z,64.44
2022-10-17T00:22:21.593Z,64.34
2022-10-17T00:23:21.589Z,64.44
2022-10-17T00:24:21.565Z,64.44
2022-10-17T00:25:21.548Z,64.44
2022-10-17T00:26:21.525Z,64.44
2022-10-17T00:27:21.683Z,64.44
2022-10-17T00:28:21.541Z,64.44
2022-10-17T00:29:21.526Z,64.44
2022-10-17T00:30:21.477Z,64.44
2022-10-17T00:31:21.466Z,64.44
2022-10-17T00:32:21.448Z,64.44
2022-10-17T00:33:21.563Z,64.44
2022-10-17T00:34:21.416Z,64.44
2022-10-17T00:35:21.432Z,64.44
2022-10-17T00:36:21.384Z,64.34
2022-10-17T00:37:21.381Z,64.34
2022-10-17T00:38:21.386Z,64.44
2022-10-17T00:39:21.564Z,64.34
2022-10-17T00:40:21.321Z,64.34
2022-10-17T00:41:21.361Z,64.34
2022-10-17T00:42:21.349Z,64.34
2022-10-17T00:43:21.280Z,64.34
2022-10-17T00:44:21.279Z,64.34
2022-10-17T00:45:21.409Z,64.34
2022-10-17T00:46:21.250Z,64.34
2022-10-17T00:47:21.267Z,64.34
2022-10-17T00:48:23.273Z,64.34
2022-10-17T00:49:21.219Z,64.34
2022-10-17T00:50:21.195Z,64.24
2022-10-17T00:51:21.380Z,64.24
2022-10-17T00:52:21.167Z,64.24
2022-10-17T00:53:21.170Z,64.24
2022-10-17T00:54:21.139Z,64.24
2022-10-17T00:55:21.149Z,64.34
2022-10-17T00:56:21.102Z,64.24
2022-10-17T00:57:21.181Z,64.24
2022-10-17T00:58:21.083Z,64.24
2022-10-17T00:59:21.116Z,64.24
2022-10-17T01:00:21.040Z,64.24
2022-10-17T01:01:21.094Z,64.24
2022-10-17T01:02:21.020Z,64.24
2022-10-17T01:03:21.098Z,64.24
2022-10-17T01:04:20.995Z,64.24
2022-10-17T01:05:21.030Z,64.24
2022-10-17T01:06:20.963Z,64.24
2022-10-17T01:07:20.946Z,64.14
2022-10-17T01:08:20.935Z,64.24
2022-10-17T01:09:21.071Z,64.24
2022-10-17T01:10:20.923Z,64.24
2022-10-17T01:11:20.941Z,64.24
2022-10-17T01:12:20.871Z,64.24
2022-10-17T01:13:20.865Z,64.24
2022-10-17T01:14:20.854Z,64.24
2022-10-17T01:15:20.939Z,64.34
2022-10-17T01:16:20.845Z,64.37
2022-10-17T01:17:20.833Z,64.37
2022-10-17T01:18:20.792Z,64.24
2022-10-17T01:19:20.812Z,64.24
2022-10-17T01:20:20.771Z,64.24
2022-10-17T01:21:20.902Z,64.17
2022-10-17T01:22:20.747Z,64.24
2022-10-17T01:23:20.908Z,64.27
2022-10-17T01:24:20.719Z,64.24
2022-10-17T01:25:20.727Z,64.24
2022-10-17T01:26:20.686Z,64.24
2022-10-17T01:27:20.931Z,64.24
2022-10-17T01:28:20.746Z,64.24
2022-10-17T01:29:20.685Z,64.27
2022-10-17T01:30:20.630Z,64.17
2022-10-17T01:31:20.640Z,64.27
2022-10-17T01:32:20.596Z,64.27
2022-10-17T01:33:20.822Z,64.27
2022-10-17T01:34:20.583Z,64.27
2022-10-17T01:35:20.600Z,64.27
2022-10-17T01:36:20.557Z,64.17
2022-10-17T01:37:20.550Z,64.27
2022-10-17T01:38:20.519Z,64.17
2022-10-17T01:39:20.606Z,64.17
2022-10-17T01:40:20.516Z,64.17
2022-10-17T01:41:20.515Z,64.17
2022-10-17T01:42:20.453Z,64.27
2022-10-17T01:43:20.452Z,64.27
2022-10-17T01:44:20.454Z,64.17
2022-10-17T01:45:20.629Z,64.27
2022-10-17T01:46:20.401Z,64.27
2022-10-17T01:47:20.418Z,64.27
2022-10-17T01:48:20.381Z,64.27
2022-10-17T01:49:20.369Z,64.17
2022-10-17T01:50:20.385Z,64.17
2022-10-17T01:51:20.567Z,64.17
2022-10-17T01:52:20.336Z,64.17
2022-10-17T01:53:20.351Z,64.27
2022-10-17T01:54:20.301Z,64.17
2022-10-17T01:55:20.794Z,64.17
2022-10-17T01:56:20.266Z,64.07
2022-10-17T01:57:20.406Z,64.17
2022-10-17T01:58:20.253Z,64.17
2022-10-17T01:59:20.249Z,64.17
2022-10-17T02:00:20.256Z,64.17
2022-10-17T02:01:20.221Z,64.17
2022-10-17T02:02:20.179Z,64.17
2022-10-17T02:03:20.258Z,64.17
2022-10-17T02:04:20.159Z,64.17
2022-10-17T02:05:20.188Z,64.17
2022-10-17T02:06:20.136Z,64.17
2022-10-17T02:07:20.167Z,64.17
2022-10-17T02:08:20.098Z,64.17
2022-10-17T02:09:20.284Z,64.17
2022-10-17T02:10:20.746Z,64.17
2022-10-17T02:11:20.092Z,64.17
2022-10-17T02:12:20.038Z,64.17
2022-10-17T02:13:20.030Z,64.07
2022-10-17T02:14:20.021Z,64.07
2022-10-17T02:15:20.082Z,64.17
2022-10-17T02:16:19.998Z,64.07
2022-10-17T02:17:20.022Z,64.07
2022-10-17T02:18:19.959Z,64.17
2022-10-17T02:19:19.978Z,64.17
2022-10-17T02:20:19.941Z,64.07
2022-10-17T02:21:20.100Z,64.17
2022-10-17T02:22:19.932Z,64.07
2022-10-17T02:23:19.964Z,64.17
2022-10-17T02:24:19.920Z,64.07
2022-10-17T02:25:19.893Z,64.17
2022-10-17T02:26:19.892Z,64.17
2022-10-17T02:27:19.961Z,64.17
2022-10-17T02:28:19.899Z,64.17
2022-10-17T02:29:20.276Z,64.07
2022-10-17T02:30:19.852Z,64.07
2022-10-17T02:31:19.830Z,64.07
2022-10-17T02:33:19.974Z,64.07
2022-10-17T02:34:19.778Z,64.07
2022-10-17T02:35:19.834Z,64.07
2022-10-17T02:36:19.710Z,64.07
2022-10-17T02:37:19.700Z,64.07
2022-10-17T02:38:19.708Z,64.07
2022-10-17T02:39:19.812Z,64.07
2022-10-17T02:40:19.686Z,64.07
2022-10-17T02:41:19.704Z,64.07
2022-10-17T02:42:19.662Z,64.07
2022-10-17T02:43:19.648Z,64.07
2022-10-17T02:44:19.595Z,63.97
2022-10-17T02:45:19.701Z,63.97
2022-10-17T02:46:19.573Z,63.97
2022-10-17T02:47:20.259Z,63.97
2022-10-17T02:48:20.082Z,64.07
2022-10-17T02:49:19.533Z,63.97
2022-10-17T02:50:19.558Z,63.97
2022-10-17T02:51:19.690Z,63.97
2022-10-17T02:52:19.854Z,63.97
2022-10-17T02:53:19.532Z,64.07
2022-10-17T02:54:19.496Z,63.87
2022-10-17T02:55:19.445Z,63.97
2022-10-17T02:56:19.429Z,63.97
2022-10-17T02:57:20.043Z,63.97
2022-10-17T02:58:19.452Z,63.97
2022-10-17T02:59:19.436Z,63.87
2022-10-17T03:00:19.392Z,63.87
2022-10-17T03:01:19.413Z,63.97
2022-10-17T03:02:19.481Z,64.07
2022-10-17T03:03:19.440Z,63.87
2022-10-17T03:04:19.332Z,63.97
2022-10-17T03:05:19.334Z,63.97
2022-10-17T03:06:19.288Z,63.97
2022-10-17T03:07:19.386Z,63.97
2022-10-17T03:08:19.274Z,63.87
2022-10-17T03:09:19.420Z,63.97
2022-10-17T03:10:19.231Z,63.97
2022-10-17T03:11:19.250Z,63.97
2022-10-17T03:12:19.220Z,63.97
2022-10-17T03:13:19.197Z,63.97
2022-10-17T03:14:19.176Z,64.07
2022-10-17T03:15:19.324Z,63.97
2022-10-17T03:16:19.206Z,63.97
2022-10-17T03:17:19.165Z,63.97
2022-10-17T03:18:19.119Z,63.97
2022-10-17T03:19:19.112Z,63.90
2022-10-17T03:20:19.094Z,63.97
2022-10-17T03:21:19.239Z,63.90
2022-10-17T03:22:19.059Z,64.00
2022-10-17T03:23:19.118Z,63.87
2022-10-17T03:24:19.081Z,64.00
2022-10-17T03:25:19.039Z,64.00
2022-10-17T03:26:19.007Z,63.90
2022-10-17T03:27:19.158Z,63.90
2022-10-17T03:28:18.979Z,64.00
2022-10-17T03:29:19.015Z,64.00
2022-10-17T03:30:18.953Z,63.90
2022-10-17T03:31:18.931Z,63.90
2022-10-17T03:32:18.927Z,64.00
2022-10-17T03:33:18.999Z,63.80
2022-10-17T03:34:18.932Z,63.90
2022-10-17T03:35:19.051Z,64.00
2022-10-17T03:36:18.905Z,63.90
2022-10-17T03:37:18.885Z,63.90
2022-10-17T03:38:18.841Z,64.00
2022-10-17T03:39:19.001Z,63.90
2022-10-17T03:40:18.807Z,63.90
2022-10-17T03:41:18.835Z,63.80
2022-10-17T03:42:18.769Z,63.80
2022-10-17T03:43:18.767Z,64.00
2022-10-17T03:44:18.766Z,63.90
2022-10-17T03:45:18.884Z,64.00
2022-10-17T03:46:18.861Z,63.90
2022-10-17T03:47:18.810Z,63.80
2022-10-17T03:48:18.699Z,63.90
2022-10-17T03:49:18.690Z,63.80
2022-10-17T03:50:18.678Z,63.90
2022-10-17T03:51:18.743Z,63.90
2022-10-17T03:52:18.637Z,63.90
2022-10-17T03:53:18.658Z,63.90
2022-10-17T03:54:18.625Z,64.00
2022-10-17T03:55:18.595Z,63.90
2022-10-17T03:56:18.581Z,63.90
2022-10-17T03:57:18.724Z,63.90
2022-10-17T03:58:18.565Z,63.90
2022-10-17T03:59:18.577Z,63.90
2022-10-17T04:00:18.590Z,64.00
2022-10-17T04:01:18.560Z,64.00
2022-10-17T04:02:18.517Z,63.90
2022-10-17T04:03:18.581Z,64.00
2022-10-17T04:04:18.534Z,63.90
2022-10-17T04:05:18.500Z,63.90
2022-10-17T04:06:18.442Z,64.00
2022-10-17T04:07:18.488Z,63.90
2022-10-17T04:08:18.421Z,64.00
2022-10-17T04:09:18.654Z,64.00
2022-10-17T04:10:18.463Z,63.90
2022-10-17T04:11:18.445Z,64.10
2022-10-17T04:12:18.411Z,64.00
2022-10-17T04:13:18.366Z,63.90
2022-10-17T04:14:18.349Z,64.00
2022-10-17T04:15:18.614Z,64.10
2022-10-17T04:16:18.348Z,64.00
2022-10-17T04:17:18.387Z,64.10
2022-10-17T04:18:18.278Z,64.20
2022-10-17T04:19:18.410Z,64.20
2022-10-17T04:20:18.251Z,64.30
2022-10-17T04:21:18.409Z,64.30
2022-10-17T04:22:18.239Z,64.30
2022-10-17T04:23:18.240Z,64.30
2022-10-17T04:24:18.191Z,64.30
2022-10-17T04:25:18.180Z,64.30
2022-10-17T04:26:18.163Z,64.30
2022-10-17T04:27:18.344Z,64.30
2022-10-17T04:28:18.165Z,64.30
2022-10-17T04:29:18.180Z,64.30
2022-10-17T04:30:18.124Z,64.40
2022-10-17T04:31:18.096Z,64.20
2022-10-17T04:32:18.079Z,64.20
2022-10-17T04:33:18.258Z,64.20
2022-10-17T04:34:18.052Z,64.30
2022-10-17T04:35:18.067Z,64.40
2022-10-17T04:36:18.055Z,64.40
2022-10-17T04:37:18.027Z,64.30
2022-10-17T04:38:17.998Z,64.30
2022-10-17T04:39:18.250Z,64.30
2022-10-17T04:40:17.972Z,64.40
2022-10-17T04:41:18.245Z,64.40
2022-10-17T04:42:17.947Z,64.40
2022-10-17T04:43:17.933Z,64.50
2022-10-17T04:44:17.908Z,64.50
2022-10-17T04:45:17.946Z,64.40
2022-10-17T04:46:17.943Z,64.40
2022-10-17T04:47:18.080Z,64.40
2022-10-17T04:48:17.858Z,64.50
2022-10-17T04:49:17.874Z,64.50
2022-10-17T04:50:17.838Z,64.50
2022-10-17T04:51:18.830Z,64.40
2022-10-17T04:52:17.794Z,64.50
2022-10-17T04:53:17.899Z,64.40
2022-10-17T04:54:17.783Z,64.50
2022-10-17T04:55:17.798Z,64.50
2022-10-17T04:56:17.746Z,64.50
2022-10-17T04:57:17.738Z,64.50
2022-10-17T04:58:17.707Z,64.50
2022-10-17T04:59:17.818Z,64.50
2022-10-17T05:00:17.742Z,64.50
2022-10-17T05:01:17.715Z,64.50
2022-10-17T05:02:17.657Z,64.40
2022-10-17T05:03:17.651Z,64.50
2022-10-17T05:04:21.059Z,64.50
2022-10-17T05:05:18.787Z,64.50
2022-10-17T05:06:17.606Z,64.50
2022-10-17T05:07:17.606Z,64.50
2022-10-17T05:08:17.585Z,64.50
2022-10-17T05:09:17.569Z,64.50
2022-10-17T05:10:17.548Z,64.50
2022-10-17T05:11:17.724Z,64.50
2022-10-17T05:12:17.514Z,64.50
2022-10-17T05:13:17.512Z,64.50
2022-10-17T05:14:17.497Z,64.50
2022-10-17T05:15:17.484Z,64.50
2022-10-17T05:16:17.470Z,64.50
2022-10-17T05:17:17.592Z,64.50
2022-10-17T05:18:17.442Z,64.50
2022-10-17T05:19:17.445Z,64.50
2022-10-17T05:20:17.410Z,64.50
2022-10-17T05:21:17.397Z,64.50
2022-10-17T05:22:17.384Z,64.40
2022-10-17T05:23:17.549Z,64.20
2022-10-17T05:24:17.352Z,64.10
2022-10-17T05:25:17.341Z,64.13
2022-10-17T05:26:17.329Z,63.90
2022-10-17T05:27:17.311Z,63.90
2022-10-17T05:28:17.308Z,63.90
2022-10-17T05:29:17.567Z,63.93
2022-10-17T05:30:17.324Z,63.80
2022-10-17T05:31:17.265Z,63.80
2022-10-17T05:32:17.239Z,63.80
2022-10-17T05:33:17.232Z,63.83
2022-10-17T05:34:17.218Z,63.83
2022-10-17T05:35:17.498Z,63.83
2022-10-17T05:36:17.199Z,63.83
2022-10-17T05:37:17.166Z,63.83
2022-10-17T05:38:17.167Z,64.00
2022-10-17T05:39:17.149Z,64.00
2022-10-17T05:40:17.130Z,63.83
2022-10-17T05:41:17.468Z,63.73
2022-10-17T05:42:17.096Z,63.83
2022-10-17T05:43:17.086Z,63.83
2022-10-17T05:44:17.074Z,63.83
2022-10-17T05:45:17.094Z,63.73
2022-10-17T05:46:17.044Z,63.73
2022-10-17T05:47:17.437Z,63.73
2022-10-17T05:48:17.048Z,63.73
2022-10-17T05:49:32.214Z,63.83
2022-10-17T05:50:18.003Z,63.83
2022-10-17T05:51:16.970Z,63.83
2022-10-17T05:52:16.984Z,63.73
2022-10-17T05:53:17.096Z,63.73
2022-10-17T05:54:16.944Z,63.73
2022-10-17T05:55:16.914Z,63.93
2022-10-17T05:56:16.913Z,64.03
2022-10-17T05:57:16.899Z,64.13
2022-10-17T05:58:22.300Z,64.13
2022-10-17T05:59:18.071Z,64.23
2022-10-17T06:00:16.895Z,64.43
2022-10-17T06:01:16.835Z,64.43
2022-10-17T06:02:16.978Z,64.43
2022-10-17T06:03:16.828Z,65.13
2022-10-17T06:04:16.806Z,64.73
2022-10-17T06:05:16.996Z,64.83
2022-10-17T06:06:16.812Z,65.13
2022-10-17T06:07:16.757Z,65.13
2022-10-17T06:08:16.745Z,65.13
2022-10-17T06:09:16.722Z,65.13
2022-10-17T06:10:16.797Z,65.13
2022-10-17T06:11:16.956Z,65.13
2022-10-17T06:12:16.715Z,65.23
2022-10-17T06:13:16.662Z,65.23
2022-10-17T06:14:16.650Z,65.13
2022-10-17T06:15:16.662Z,65.23
2022-10-17T06:16:16.647Z,65.33
2022-10-17T06:17:16.750Z,65.23
2022-10-17T06:18:16.600Z,65.43
2022-10-17T06:19:16.603Z,65.33
2022-10-17T06:20:16.570Z,65.23
2022-10-17T06:21:16.553Z,65.23
2022-10-17T06:22:16.558Z,65.33
2022-10-17T06:23:16.710Z,65.43
2022-10-17T06:24:16.529Z,65.43
2022-10-17T06:25:16.495Z,65.43
2022-10-17T06:26:16.492Z,65.43
2022-10-17T06:27:16.472Z,65.43
2022-10-17T06:28:16.458Z,65.40
2022-10-17T06:29:16.768Z,65.33
2022-10-17T06:30:16.457Z,65.43
2022-10-17T06:31:16.423Z,65.33
2022-10-17T06:32:16.413Z,65.20
2022-10-17T06:33:16.388Z,65.13
2022-10-17T06:34:16.392Z,65.13
2022-10-17T06:35:17.036Z,65.13
2022-10-17T06:36:16.371Z,65.13
2022-10-17T06:37:16.339Z,65.13
2022-10-17T06:38:16.420Z,65.23
2022-10-17T06:39:16.303Z,65.23
2022-10-17T06:40:16.282Z,65.20
2022-10-17T06:41:16.546Z,65.30
2022-10-17T06:42:16.273Z,65.20
2022-10-17T06:43:16.259Z,65.20
2022-10-17T06:44:16.227Z,65.10
2022-10-17T06:45:16.221Z,65.10
2022-10-17T06:46:16.219Z,65.10
2022-10-17T06:47:19.229Z,65.00
2022-10-17T06:48:16.179Z,65.10
2022-10-17T06:49:16.162Z,65.00
2022-10-17T06:50:16.162Z,65.00
2022-10-17T06:51:16.157Z,64.90
2022-10-17T06:52:16.185Z,64.90
2022-10-17T06:53:16.542Z,64.90
2022-10-17T06:54:16.104Z,64.90
2022-10-17T06:55:18.303Z,64.90
2022-10-17T06:56:17.105Z,64.80
2022-10-17T06:57:16.051Z,64.80
2022-10-17T06:58:16.039Z,64.70
2022-10-17T06:59:16.141Z,64.67
2022-10-17T07:00:16.042Z,64.77
2022-10-17T07:01:16.003Z,64.77
2022-10-17T07:02:15.992Z,64.67
2022-10-17T07:03:16.007Z,64.57
2022-10-17T07:04:15.975Z,64.47
2022-10-17T07:05:16.048Z,64.47
2022-10-17T07:06:15.934Z,64.37
2022-10-17T07:07:15.903Z,64.37
2022-10-17T07:08:15.904Z,64.27
2022-10-17T07:09:15.895Z,64.27
2022-10-17T07:10:15.870Z,64.27
2022-10-17T07:11:16.083Z,64.17
2022-10-17T07:12:15.922Z,64.17
2022-10-17T07:13:15.851Z,64.07
2022-10-17T07:14:17.308Z,64.07
2022-10-17T07:15:15.807Z,64.04
2022-10-17T07:16:15.780Z,64.44
2022-10-17T07:17:16.000Z,64.24
2022-10-17T07:18:15.757Z,64.04
2022-10-17T07:19:15.757Z,64.04
2022-10-17T07:20:15.734Z,63.94
2022-10-17T07:21:15.712Z,63.94
2022-10-17T07:22:15.717Z,63.84
2022-10-17T07:23:16.563Z,63.84
2022-10-17T07:24:15.682Z,63.84
2022-10-17T07:25:15.658Z,63.74
2022-10-17T07:26:15.649Z,63.74
2022-10-17T07:27:15.622Z,63.74
2022-10-17T07:28:15.634Z,63.74
2022-10-17T07:29:15.941Z,63.64
2022-10-17T07:30:15.643Z,63.64
2022-10-17T07:31:15.585Z,63.64
2022-10-17T07:32:15.564Z,63.64
2022-10-17T07:33:15.661Z,63.64
2022-10-17T07:34:15.542Z,63.54
2022-10-17T07:35:15.641Z,63.54
2022-10-17T07:36:15.499Z,63.54
2022-10-17T07:37:15.486Z,63.54
2022-10-17T07:38:15.505Z,63.64
2022-10-17T07:39:15.481Z,63.54
2022-10-17T07:40:15.441Z,63.64
2022-10-17T07:41:19.252Z,63.64
2022-10-17T07:42:16.427Z,63.54
2022-10-17T07:43:15.407Z,63.54
2022-10-17T07:44:15.418Z,63.54
2022-10-17T07:45:15.420Z,63.54
2022-10-17T07:46:15.378Z,63.54
2022-10-17T07:47:15.474Z,63.54
2022-10-17T07:48:15.539Z,63.64
2022-10-17T07:49:15.317Z,63.54
2022-10-17T07:50:15.299Z,63.54
2022-10-17T07:51:15.289Z,63.54
2022-10-17T07:52:15.294Z,63.64
2022-10-17T07:53:15.425Z,63.64
2022-10-17T07:54:15.258Z,63.64
2022-10-17T07:55:15.237Z,63.64
2022-10-17T07:56:15.225Z,63.64
2022-10-17T07:57:15.366Z,63.64
2022-10-17T07:58:15.211Z,63.74
2022-10-17T07:59:15.259Z,63.64
2022-10-17T08:00:15.227Z,63.74
2022-10-17T08:01:16.045Z,63.74
2022-10-17T08:02:15.139Z,63.64
2022-10-17T08:03:15.284Z,63.74
2022-10-17T08:04:15.105Z,63.74
2022-10-17T08:05:15.132Z,63.84
2022-10-17T08:06:15.098Z,63.94
2022-10-17T08:07:24.341Z,63.84
2022-10-17T08:08:16.301Z,63.94
2022-10-17T08:09:15.034Z,63.84
2022-10-17T08:10:15.044Z,63.84
2022-10-17T08:11:15.048Z,63.84
2022-10-17T08:12:15.025Z,63.94
2022-10-17T08:13:14.989Z,63.94
2022-10-17T08:14:15.192Z,63.94
2022-10-17T08:15:14.963Z,63.94
2022-10-17T08:16:14.948Z,63.94
2022-10-17T08:17:14.971Z,63.91
2022-10-17T08:18:14.935Z,63.81
2022-10-17T08:19:14.907Z,63.91
2022-10-17T08:20:15.003Z,63.81
2022-10-17T08:21:14.874Z,63.91
2022-10-17T08:22:14.857Z,63.81
2022-10-17T08:23:14.869Z,63.91
2022-10-17T08:24:14.830Z,63.81
2022-10-17T08:25:14.830Z,63.91
2022-10-17T08:26:14.902Z,63.91
2022-10-17T08:27:14.805Z,63.91
2022-10-17T08:28:14.787Z,63.91
2022-10-17T08:29:14.785Z,64.11
2022-10-17T08:30:14.814Z,63.91
2022-10-17T08:31:14.809Z,63.91
2022-10-17T08:32:14.824Z,63.81
2022-10-17T08:33:14.761Z,63.81
2022-10-17T08:34:14.750Z,63.81
2022-10-17T08:35:14.766Z,63.91
2022-10-17T08:36:14.752Z,63.78
2022-10-17T08:37:14.681Z,63.78
2022-10-17T08:38:16.003Z,63.68
2022-10-17T08:39:14.618Z,63.68
2022-10-17T08:40:14.632Z,63.68
2022-10-17T08:41:14.673Z,63.68
2022-10-17T08:42:14.620Z,63.68
2022-10-17T08:43:14.597Z,63.68
2022-10-17T08:44:14.886Z,63.98
2022-10-17T08:45:14.628Z,64.28
2022-10-17T08:47:14.591Z,63.95
2022-10-17T08:48:14.515Z,63.85
2022-10-17T08:49:14.473Z,63.65
2022-10-17T08:50:15.121Z,63.55
2022-10-17T08:51:14.453Z,63.45
2022-10-17T08:52:14.429Z,63.55
2022-10-17T08:53:14.455Z,63.55
2022-10-17T08:54:14.410Z,63.45
2022-10-17T08:55:14.480Z,63.45
2022-10-17T08:56:19.551Z,63.62
2022-10-17T08:57:15.363Z,63.55
2022-10-17T08:58:14.363Z,63.42
2022-10-17T08:59:14.386Z,63.32
2022-10-17T09:00:14.454Z,63.32
2022-10-17T09:01:14.323Z,63.32
2022-10-17T09:02:14.469Z,63.32
2022-10-17T09:03:14.344Z,63.32
2022-10-17T09:04:14.276Z,63.32
2022-10-17T09:05:14.403Z,63.22
2022-10-17T09:06:14.249Z,63.22
2022-10-17T09:07:14.246Z,63.12
2022-10-17T09:08:14.319Z,63.42
2022-10-17T09:09:14.216Z,63.32
2022-10-17T09:10:14.209Z,63.22
2022-10-17T09:11:14.207Z,63.12
2022-10-17T09:12:14.197Z,63.32
2022-10-17T09:13:14.250Z,63.22
2022-10-17T09:14:14.375Z,63.22
2022-10-17T09:15:14.139Z,63.02
2022-10-17T09:16:14.145Z,62.99
2022-10-17T09:17:14.250Z,62.89
2022-10-17T09:18:15.810Z,62.99
2022-10-17T09:19:14.067Z,62.89
2022-10-17T09:20:14.234Z,62.99
2022-10-17T09:21:14.051Z,62.99
2022-10-17T09:22:14.059Z,62.99
2022-10-17T09:23:14.057Z,62.79
2022-10-17T09:24:15.710Z,62.89
2022-10-17T09:25:13.991Z,62.79
2022-10-17T09:26:14.042Z,62.79
2022-10-17T09:27:13.972Z,62.89
2022-10-17T09:28:13.935Z,63.09
2022-10-17T09:29:13.950Z,62.99
2022-10-17T09:30:21.447Z,62.89
2022-10-17T09:31:15.111Z,62.89
2022-10-17T09:32:13.891Z,62.89
2022-10-17T09:33:23.329Z,62.99
2022-10-17T09:34:14.906Z,63.09
2022-10-17T09:35:13.852Z,62.89
2022-10-17T09:36:13.847Z,62.89
2022-10-17T09:37:13.985Z,63.09
2022-10-17T09:38:13.799Z,62.89
2022-10-17T09:39:13.787Z,62.99
2022-10-17T09:40:13.851Z,62.89
2022-10-17T09:41:39.139Z,62.99
2022-10-17T09:42:15.020Z,62.99
2022-10-17T09:43:13.724Z,63.09
2022-10-17T09:44:13.736Z,63.06
2022-10-17T09:45:13.790Z,62.96
2022-10-17T09:46:13.719Z,62.96
2022-10-17T09:47:13.689Z,62.96
2022-10-17T09:48:13.802Z,62.86
2022-10-17T09:49:16.377Z,62.96
2022-10-17T09:50:13.652Z,62.86
2022-10-17T09:51:25.562Z,63.06
2022-10-17T09:52:14.662Z,63.06
2022-10-17T09:53:13.590Z,63.06
2022-10-17T09:54:13.715Z,63.06
2022-10-17T09:55:13.566Z,63.06
2022-10-17T09:56:13.558Z,63.06
2022-10-17T09:57:13.529Z,63.06
2022-10-17T09:58:13.719Z,63.06
2022-10-17T09:59:13.985Z,62.96
2022-10-17T10:01:13.533Z,62.96
2022-10-17T10:02:13.462Z,62.86
2022-10-17T10:03:13.458Z,62.96
2022-10-17T10:04:13.467Z,62.96
2022-10-17T10:05:13.452Z,63.06
2022-10-17T10:06:13.491Z,63.16
2022-10-17T10:07:13.404Z,62.96
2022-10-17T10:08:13.377Z,63.06
2022-10-17T10:09:13.407Z,63.16
2022-10-17T10:10:13.920Z,63.06
2022-10-17T10:11:14.016Z,63.06
2022-10-17T10:12:13.426Z,63.16
2022-10-17T10:13:13.318Z,63.26
2022-10-17T10:14:13.302Z,63.06
2022-10-17T10:15:13.291Z,63.06
2022-10-17T10:16:13.299Z,62.83
2022-10-17T10:17:13.262Z,62.93
2022-10-17T10:18:13.456Z,62.96
2022-10-17T10:19:13.227Z,62.96
2022-10-17T10:20:13.212Z,62.83
2022-10-17T10:21:13.196Z,62.83
2022-10-17T10:22:13.216Z,62.83
2022-10-17T10:23:13.176Z,62.73
2022-10-17T10:24:13.277Z,62.83
2022-10-17T10:25:13.140Z,62.83
2022-10-17T10:26:13.141Z,62.93
2022-10-17T10:27:13.125Z,62.93
2022-10-17T10:28:13.135Z,62.93
2022-10-17T10:29:13.136Z,62.83
2022-10-17T10:30:13.165Z,62.83
2022-10-17T10:31:13.066Z,62.83
2022-10-17T10:32:13.041Z,62.73
2022-10-17T10:33:13.040Z,62.93
2022-10-17T10:34:13.057Z,62.83
2022-10-17T10:35:13.031Z,62.93
2022-10-17T10:36:13.156Z,62.93
2022-10-17T10:37:14.712Z,63.13
2022-10-17T10:38:12.964Z,63.23
2022-10-17T10:39:12.968Z,63.23
2022-10-17T10:40:12.976Z,63.53
2022-10-17T10:41:12.928Z,63.49
2022-10-17T10:42:13.120Z,63.49
2022-10-17T10:43:12.894Z,63.79
2022-10-17T10:44:12.871Z,63.79
2022-10-17T10:45:23.661Z,63.79
2022-10-17T10:46:13.912Z,63.89
2022-10-17T10:47:12.840Z,64.29
2022-10-17T10:48:13.002Z,64.39
2022-10-17T10:49:12.814Z,64.69
2022-10-17T10:50:12.799Z,64.69
2022-10-17T10:51:12.781Z,64.49
2022-10-17T10:52:12.802Z,64.89
2022-10-17T10:53:12.756Z,64.89
2022-10-17T10:54:12.853Z,64.69
2022-10-17T10:55:12.726Z,64.59
2022-10-17T10:56:12.731Z,64.76
2022-10-17T10:57:12.699Z,64.46
2022-10-17T10:58:12.706Z,64.95
2022-10-17T10:59:12.680Z,64.66
2022-10-17T11:00:12.853Z,64.76
2022-10-17T11:01:12.745Z,64.76
2022-10-17T11:02:12.632Z,64.86
2022-10-17T11:03:12.953Z,64.56
2022-10-17T11:04:12.640Z,64.66
2022-10-17T11:05:12.595Z,64.66
2022-10-17T11:06:12.651Z,64.66
2022-10-17T11:07:12.562Z,64.56
2022-10-17T11:08:12.543Z,64.66
2022-10-17T11:09:12.533Z,64.95
2022-10-17T11:10:12.553Z,64.66
2022-10-17T11:11:12.505Z,64.46
2022-10-17T11:12:12.641Z,64.46
2022-10-17T11:13:12.653Z,64.83
2022-10-17T11:14:13.765Z,64.62
2022-10-17T11:15:12.513Z,64.83
2022-10-17T11:16:12.632Z,64.83
2022-10-17T11:17:13.916Z,64.73
2022-10-17T11:18:12.530Z,64.92
2022-10-17T11:19:13.334Z,64.92
2022-10-17T11:20:12.383Z,64.83
2022-10-17T11:21:12.385Z,65.02
2022-10-17T11:22:12.590Z,65.02
2022-10-17T11:23:12.623Z,65.02
2022-10-17T11:24:12.335Z,65.02
2022-10-17T11:25:12.518Z,65.02
2022-10-17T11:26:12.299Z,64.92
2022-10-17T11:27:12.279Z,64.92
2022-10-17T11:28:12.287Z,65.02
2022-10-17T11:29:12.254Z,65.59
2022-10-17T11:30:12.380Z,65.29
2022-10-17T11:31:12.535Z,64.99
2022-10-17T11:32:12.538Z,64.89
2022-10-17T11:33:12.192Z,64.70
2022-10-17T11:34:12.227Z,64.50
2022-10-17T11:35:12.170Z,64.40
2022-10-17T11:36:12.280Z,64.50
2022-10-17T11:37:12.237Z,64.70
2022-10-17T11:38:12.117Z,64.59
2022-10-17T11:39:12.131Z,64.50
2022-10-17T11:40:12.133Z,64.00
2022-10-17T11:41:12.075Z,64.40
2022-10-17T11:42:12.064Z,64.30
2022-10-17T11:43:12.221Z,64.40
2022-10-17T11:44:12.063Z,64.10
2022-10-17T11:45:12.043Z,64.10
2022-10-17T11:46:12.108Z,64.00
2022-10-17T11:47:12.007Z,64.30
2022-10-17T11:48:11.973Z,64.00
2022-10-17T11:49:15.048Z,64.00
2022-10-17T11:52:18.386Z,63.97
2022-10-17T11:53:13.295Z,64.27
2022-10-17T11:54:11.896Z,64.27
2022-10-17T11:55:12.281Z,64.07
2022-10-17T11:56:11.879Z,64.27
2022-10-17T11:57:14.720Z,64.37
2022-10-17T11:58:11.839Z,64.17
2022-10-17T11:59:11.834Z,64.17
2022-10-17T12:00:11.884Z,64.27
2022-10-17T12:01:11.977Z,64.27
2022-10-17T12:02:11.789Z,64.17
2022-10-17T12:03:11.819Z,64.17
2022-10-17T12:04:11.814Z,64.17
2022-10-17T12:05:11.768Z,64.27
2022-10-17T12:06:11.733Z,64.17
2022-10-17T12:07:11.889Z,64.07
2022-10-17T12:08:11.738Z,64.17
2022-10-17T12:09:11.764Z,64.67
2022-10-17T12:10:11.686Z,64.47
2022-10-17T12:11:11.698Z,64.67
2022-10-17T12:12:11.661Z,64.47
2022-10-17T12:13:11.731Z,64.37
2022-10-17T12:14:11.680Z,64.07
2022-10-17T12:15:12.021Z,64.07
2022-10-17T12:16:15.841Z,63.97
2022-10-17T12:17:12.597Z,63.97
2022-10-17T12:18:11.606Z,63.87
2022-10-17T12:19:11.844Z,64.56
2022-10-17T12:20:11.759Z,64.56
2022-10-17T12:21:11.871Z,64.47
2022-10-17T12:22:11.820Z,64.47
2022-10-17T12:23:11.504Z,64.37
2022-10-17T12:24:13.485Z,64.27
2022-10-17T12:25:12.648Z,64.37
2022-10-17T12:26:11.455Z,64.27
2022-10-17T12:27:11.540Z,64.17
2022-10-17T12:28:11.437Z,64.14
2022-10-17T12:29:11.412Z,64.14
2022-10-17T12:30:11.445Z,64.14
2022-10-17T12:31:11.562Z,64.23
2022-10-17T12:32:11.390Z,64.14
2022-10-17T12:33:11.401Z,64.04
2022-10-17T12:34:11.345Z,64.04
2022-10-17T12:35:11.358Z,64.04
2022-10-17T12:36:11.444Z,64.04
2022-10-17T12:37:11.408Z,64.04
2022-10-17T12:38:11.311Z,64.04
2022-10-17T12:39:11.340Z,63.94
2022-10-17T12:40:11.256Z,63.94
2022-10-17T12:41:11.596Z,63.94
2022-10-17T12:42:11.232Z,64.04
2022-10-17T12:43:11.319Z,63.94
2022-10-17T12:44:11.231Z,63.94
2022-10-17T12:45:11.276Z,63.94
2022-10-17T12:46:11.201Z,63.94
2022-10-17T12:47:11.177Z,63.94
2022-10-17T12:48:11.168Z,63.94
2022-10-17T12:49:11.300Z,64.04
2022-10-17T12:50:11.129Z,63.74
2022-10-17T12:52:12.146Z,63.74
2022-10-17T12:53:13.438Z,63.64
2022-10-17T12:54:11.078Z,63.74
2022-10-17T12:55:13.447Z,63.64
2022-10-17T12:56:11.041Z,63.84
2022-10-17T12:57:11.082Z,63.84
2022-10-17T12:58:11.036Z,64.04